Time;durP1;ratioP1;P1;durP2;ratioP2;P2;SDS_P1;SDS_P2;PMS_P1;PMS_P2;Temp;Humidity;BMP_temperature;BMP_pressure;BME280_temperature;BME280_humidity;BME280_pressure;Samples;Min_cycle;Max_cycle;Signal;HPM_P1;HPM_P2
2021/12/16 00:01:47;;;;;;;19.50;13.35;;;;;;;6.79;91.33;101878.56;1687843;85;21053;-70
2021/12/16 00:07:22;;;;;;;20.08;13.90;;;;;;;6.78;91.32;101867.58;1686892;85;21081;-70
2021/12/16 00:09:53;;;;;;;22.05;13.72;;;;;;;6.77;91.33;101860.58;1660926;86;21061;-70
2021/12/16 00:31:51;;;;;;;21.07;12.75;;;;;;;6.75;91.27;101850.57;1686824;84;21195;-70
2021/12/16 00:34:14;;;;;;;19.07;12.50;;;;;;;6.75;91.26;101857.20;1670032;85;21010;-70
2021/12/16 00:36:41;;;;;;;18.50;12.05;;;;;;;6.74;91.25;101851.52;1692234;84;21058;-70
2021/12/16 00:39:12;;;;;;;17.20;12.35;;;;;;;6.74;91.25;101856.82;1693737;84;21475;-70
2021/12/16 00:41:41;;;;;;;20.02;12.90;;;;;;;6.73;91.22;101855.97;1678497;84;21074;-70
2021/12/16 00:44:59;;;;;;;22.10;13.50;;;;;;;6.72;91.24;101852.94;1679972;84;21793;-70
2021/12/16 00:46:57;;;;;;;20.45;12.53;;;;;;;6.72;91.22;101856.91;1664253;84;20995;-70
2021/12/16 00:49:25;;;;;;;19.98;11.97;;;;;;;6.72;91.24;101860.07;1695921;84;21112;-70
2021/12/16 00:54:31;;;;;;;23.22;13.85;;;;;;;6.71;91.21;101861.02;1675321;84;21066;-70
2021/12/16 00:57:06;;;;;;;23.95;13.28;;;;;;;6.71;91.22;101853.07;1687088;84;21796;-71
2021/12/16 00:59:33;;;;;;;28.30;22.05;;;;;;;6.70;91.20;101859.31;1669719;85;21041;-70
2021/12/16 01:07:53;;;;;;;19.98;13.18;;;;;;;6.64;91.18;101865.06;1699024;84;21002;-70
2021/12/16 01:35:11;;;;;;;32.38;24.10;;;;;;;6.62;91.11;101880.20;1670968;85;21498;-71
2021/12/16 01:45:31;;;;;;;23.25;14.15;;;;;;;6.58;91.06;101865.50;1672945;85;21522;-71
2021/12/16 01:45:42;;;;;;;23.07;13.37;;;;;;;6.55;91.05;101871.84;1668844;85;21045;-71
2021/12/16 01:50:39;;;;;;;20.82;14.58;;;;;;;6.57;91.04;101874.41;1690369;84;22123;-70
2021/12/16 01:53:50;;;;;;;22.52;13.50;;;;;;;6.56;91.04;101873.55;1701008;84;21089;-71
2021/12/16 01:56:10;;;;;;;24.52;13.50;;;;;;;6.54;91.03;101874.97;1697030;84;21050;-71
2021/12/16 01:58:32;;;;;;;25.52;15.18;;;;;;;6.55;91.01;101887.75;1699908;84;21037;-71
2021/12/16 02:01:16;;;;;;;23.75;16.00;;;;;;;6.54;91.00;101878.94;1701471;84;21071;-71
2021/12/16 02:03:44;;;;;;;25.82;16.50;;;;;;;6.53;90.97;101886.55;1700630;84;21097;-71
2021/12/16 02:06:36;;;;;;;35.88;26.02;;;;;;;6.50;90.98;101890.74;1701191;84;21014;-71
2021/12/16 02:08:42;;;;;;;38.70;27.27;;;;;;;6.49;90.98;101891.69;1696893;84;21482;-70
2021/12/16 02:11:47;;;;;;;39.33;26.48;;;;;;;6.45;90.96;101892.85;1699196;84;20902;-70
2021/12/16 02:35:41;;;;;;;26.40;16.87;;;;;;;6.14;90.91;101887.13;1675655;84;21036;-71
2021/12/16 02:38:05;;;;;;;28.07;15.65;;;;;;;6.17;90.91;101886.44;1671442;84;21023;-71
2021/12/16 02:40:32;;;;;;;35.58;25.10;;;;;;;6.19;90.89;101883.23;1692160;84;21003;-71
2021/12/16 02:43:19;;;;;;;35.95;24.43;;;;;;;6.23;90.90;101886.01;1671832;84;21122;-71
2021/12/16 02:50:47;;;;;;;30.15;18.50;;;;;;;6.38;90.86;101874.36;1667872;86;21042;-70
2021/12/16 02:53:13;;;;;;;27.50;18.52;;;;;;;6.43;90.86;101872.25;1668347;86;20903;-71
2021/12/16 02:55:39;;;;;;;29.95;17.45;;;;;;;6.45;90.86;101869.00;1668276;85;21085;-71
2021/12/16 02:58:05;;;;;;;30.25;17.65;;;;;;;6.47;90.85;101872.38;1670963;84;20942;-70
2021/12/16 03:00:36;;;;;;;27.80;17.40;;;;;;;6.48;90.85;101866.61;1695908;84;20986;-71
2021/12/16 03:03:02;;;;;;;27.70;17.73;;;;;;;6.50;90.86;101870.02;1696118;83;21030;-71
2021/12/16 03:05:28;;;;;;;28.62;17.65;;;;;;;6.51;90.85;101869.04;1696375;84;20903;-71
2021/12/16 03:07:54;;;;;;;31.62;18.77;;;;;;;6.50;90.84;101867.36;1696170;84;21170;-71
2021/12/16 03:12:55;;;;;;;30.25;18.82;;;;;;;6.49;90.85;101873.61;1695729;84;21058;-71
2021/12/16 03:15:37;;;;;;;36.60;24.12;;;;;;;6.47;90.84;101873.70;1695000;84;21026;-71
2021/12/16 03:18:01;;;;;;;41.95;26.90;;;;;;;6.46;90.85;101872.50;1694184;84;21062;-71
2021/12/16 03:20:37;;;;;;;41.10;28.98;;;;;;;6.45;90.83;101873.45;1695020;84;21785;-71
2021/12/16 03:25:54;;;;;;;43.95;28.45;;;;;;;6.43;90.85;101876.23;1696029;84;21534;-71
2021/12/16 03:30:57;;;;;;;38.45;22.95;;;;;;;6.42;90.86;101877.17;1696097;84;21062;-71
2021/12/16 03:33:43;;;;;;;33.88;22.98;;;;;;;6.42;90.86;101879.82;1692521;84;21543;-71
2021/12/16 03:36:03;;;;;;;38.90;20.57;;;;;;;6.40;90.87;101884.36;1675735;84;21515;-71
2021/12/16 03:38:19;;;;;;;31.33;19.35;;;;;;;6.41;90.89;101875.94;1666075;86;21486;-71
2021/12/16 03:40:45;;;;;;;32.17;18.65;;;;;;;6.39;90.89;101872.09;1668328;86;21011;-71
2021/12/16 03:43:14;;;;;;;37.00;20.48;;;;;;;6.40;90.90;101877.73;1668310;85;20974;-71
2021/12/16 03:48:44;;;;;;;34.30;20.20;;;;;;;6.38;90.91;101877.01;1668410;86;21030;-71
2021/12/16 03:51:24;;;;;;;33.63;20.82;;;;;;;6.37;90.92;101876.63;1674531;84;21599;-71
2021/12/16 03:53:54;;;;;;;42.55;26.37;;;;;;;6.36;90.96;101869.66;1663968;85;21058;-71
2021/12/16 03:56:20;;;;;;;43.65;28.77;;;;;;;6.37;90.96;101871.80;1668304;85;21018;-71
2021/12/16 03:58:46;;;;;;;47.23;31.27;;;;;;;6.36;90.97;101870.13;1644736;86;21126;-71
2021/12/16 04:01:18;;;;;;;51.77;34.92;;;;;;;6.36;91.00;101872.78;1667750;86;20963;-71
2021/12/16 04:03:45;;;;;;;44.55;26.42;;;;;;;6.36;91.01;101872.31;1642426;86;21038;-71
2021/12/16 04:06:11;;;;;;;39.27;24.98;;;;;;;6.36;91.04;101871.45;1696594;84;21492;-71
2021/12/16 04:08:37;;;;;;;36.70;22.82;;;;;;;6.37;91.05;101877.95;1649648;87;21042;-71
2021/12/16 04:11:10;;;;;;;37.10;21.68;;;;;;;6.37;91.07;101876.63;1649768;87;21648;-71
2021/12/16 04:13:53;;;;;;;36.33;20.72;;;;;;;6.37;91.08;101866.03;1703992;84;21478;-70
2021/12/16 04:16:06;;;;;;;38.08;21.82;;;;;;;6.38;91.10;101875.69;1696671;84;21105;-71
2021/12/16 04:18:33;;;;;;;35.13;20.30;;;;;;;6.38;91.14;101869.53;1676142;85;20958;-70
2021/12/16 04:20:59;;;;;;;33.63;20.68;;;;;;;6.39;91.14;101875.22;1639420;87;21123;-70
2021/12/16 04:23:25;;;;;;;37.25;21.12;;;;;;;6.40;91.17;101870.30;1667518;86;21050;-71
2021/12/16 04:25:51;;;;;;;36.80;21.50;;;;;;;6.39;91.20;101865.47;1639566;87;21026;-70
2021/12/16 04:28:22;;;;;;;36.33;21.20;;;;;;;6.40;91.21;101861.84;1667689;84;21085;-70
2021/12/16 04:30:48;;;;;;;40.20;24.98;;;;;;;6.40;91.21;101865.81;1698042;84;21030;-71
2021/12/16 04:33:14;;;;;;;51.37;32.23;;;;;;;6.40;91.24;101876.41;1726461;83;21068;-71
2021/12/16 04:35:40;;;;;;;54.33;36.65;;;;;;;6.39;91.26;101874.73;1697194;84;21823;-71
2021/12/16 04:38:07;;;;;;;58.85;37.73;;;;;;;6.39;91.28;101873.41;1726242;83;21464;-70
2021/12/16 04:40:35;;;;;;;51.53;33.95;;;;;;;6.38;91.28;101878.34;1727717;83;20987;-71
2021/12/16 04:43:02;;;;;;;41.02;25.08;;;;;;;6.37;91.30;101884.58;1727826;83;21067;-71
2021/12/16 04:45:28;;;;;;;41.65;22.98;;;;;;;6.38;91.31;101886.28;1728011;83;21078;-71
2021/12/16 04:47:54;;;;;;;37.60;21.77;;;;;;;6.37;91.32;101880.61;1727514;83;21117;-70
2021/12/16 04:50:20;;;;;;;36.95;22.67;;;;;;;6.37;91.33;101881.93;1727747;83;21720;-71
2021/12/16 04:52:46;;;;;;;43.05;23.75;;;;;;;6.37;91.35;101875.78;1702544;83;21508;-70
2021/12/16 04:55:13;;;;;;;45.48;24.12;;;;;;;6.39;91.37;101879.19;1727670;83;21074;-71
2021/12/16 04:57:40;;;;;;;45.80;23.98;;;;;;;6.38;91.41;101884.11;1727839;83;21078;-71
2021/12/16 05:00:09;;;;;;;35.75;22.20;;;;;;;6.38;91.42;101875.69;1727879;83;21164;-71
2021/12/16 05:02:35;;;;;;;45.10;24.37;;;;;;;6.38;91.43;101878.34;1727981;83;21004;-70
2021/12/16 05:05:02;;;;;;;43.40;24.75;;;;;;;6.39;91.45;101880.04;1724767;83;21015;-71
2021/12/16 05:07:28;;;;;;;50.03;32.28;;;;;;;6.39;91.47;101876.06;1714914;83;21341;-70
2021/12/16 05:10:06;;;;;;;49.15;34.03;;;;;;;6.38;91.48;101875.69;1698476;84;21673;-71
2021/12/16 05:12:36;;;;;;;50.25;33.45;;;;;;;6.39;91.49;101881.36;1704390;83;21558;-71
2021/12/16 05:15:09;;;;;;;49.85;29.55;;;;;;;6.39;91.52;101885.34;1698955;83;21536;-70
2021/12/16 05:17:44;;;;;;;53.05;31.73;;;;;;;6.39;91.53;101884.48;1707764;83;21499;-71
2021/12/16 05:20:15;;;;;;;45.78;26.70;;;;;;;6.39;91.54;101889.78;1705938;83;21042;-70
2021/12/16 05:25:45;;;;;;;40.00;22.93;;;;;;;6.39;91.57;101885.34;1700701;83;21722;-71
2021/12/16 05:27:59;;;;;;;39.55;21.07;;;;;;;6.39;91.60;101891.96;1697788;83;20990;-71
2021/12/16 05:30:26;;;;;;;35.15;22.20;;;;;;;6.39;91.60;101886.66;1683289;84;20930;-70
2021/12/16 05:32:52;;;;;;;34.05;20.95;;;;;;;6.38;91.62;101882.31;1673607;84;21074;-71
2021/12/16 05:35:20;;;;;;;41.18;23.77;;;;;;;6.39;91.65;101881.36;1673272;84;21074;-71
2021/12/16 05:37:46;;;;;;;39.40;23.40;;;;;;;6.41;91.63;101883.41;1675383;84;21141;-70
2021/12/16 05:40:15;;;;;;;35.75;22.13;;;;;;;6.40;91.66;101885.69;1684690;84;20934;-71
2021/12/16 05:42:41;;;;;;;47.55;25.23;;;;;;;6.41;91.67;101890.04;1678708;84;21567;-71
2021/12/16 05:45:08;;;;;;;46.08;31.20;;;;;;;6.40;91.70;101887.02;1677127;84;20899;-71
2021/12/16 05:47:35;;;;;;;48.13;31.27;;;;;;;6.41;91.69;101891.36;1701567;84;21050;-71
2021/12/16 05:50:01;;;;;;;54.25;35.80;;;;;;;6.41;91.71;101894.02;1701664;84;21117;-71
2021/12/16 05:52:27;;;;;;;62.65;41.90;;;;;;;6.40;91.72;101892.31;1701119;84;21724;-71
2021/12/16 05:54:53;;;;;;;47.35;30.10;;;;;;;6.39;91.73;101891.96;1701738;84;21515;-71
2021/12/16 05:57:19;;;;;;;47.17;27.15;;;;;;;6.39;91.77;101890.64;1697903;84;20931;-71
2021/12/16 05:59:44;;;;;;;46.68;27.15;;;;;;;6.39;91.77;101895.94;1622350;85;20927;-71
2021/12/16 06:02:10;;;;;;;42.20;25.70;;;;;;;6.40;91.78;101889.66;1673184;85;21890;-71
2021/12/16 06:04:36;;;;;;;49.00;27.13;;;;;;;6.40;91.79;101894.96;1673301;85;21029;-71
2021/12/16 06:07:02;;;;;;;37.55;22.00;;;;;;;6.41;91.80;101898.46;1673251;85;20895;-71
2021/12/16 06:09:28;;;;;;;38.90;22.82;;;;;;;6.42;91.81;101900.16;1673606;84;21081;-71
2021/12/16 06:11:54;;;;;;;49.93;30.27;;;;;;;6.41;91.82;101905.94;1673552;85;21751;-70
2021/12/16 06:14:26;;;;;;;56.83;34.63;;;;;;;6.42;91.84;101906.31;1673136;85;21760;-70
2021/12/16 06:27:58;;;;;;;59.05;39.13;;;;;;;6.46;91.91;101903.83;1675615;83;21465;-71
2021/12/16 06:30:27;;;;;;;35.05;24.75;;;;;;;6.46;91.91;101903.83;1698254;84;21000;-71
2021/12/16 06:32:54;;;;;;;39.53;24.85;;;;;;;6.47;91.92;101900.20;1700617;83;21003;-70
2021/12/16 06:35:19;;;;;;;39.88;23.90;;;;;;;6.49;91.95;101901.44;1710308;83;21626;-71
2021/12/16 06:37:47;;;;;;;64.77;30.48;;;;;;;6.49;91.93;101894.34;1713185;83;21042;-70
2021/12/16 06:40:13;;;;;;;69.65;32.58;;;;;;;6.50;91.96;101903.14;1698190;84;21152;-70
2021/12/16 06:42:41;;;;;;;47.75;25.92;;;;;;;6.50;91.97;101900.02;1698544;84;21539;-70
2021/12/16 06:45:13;;;;;;;30.80;19.82;;;;;;;6.52;91.99;101904.72;1698591;84;21019;-70
2021/12/16 06:48:02;;;;;;;36.63;23.95;;;;;;;6.52;92.00;101904.72;1698054;84;21055;-70
2021/12/16 06:50:04;;;;;;;26.75;17.35;;;;;;;6.53;92.01;101909.08;1688926;84;21075;-71
2021/12/16 06:52:37;;;;;;;28.50;19.52;;;;;;;6.54;92.03;101908.09;1698535;84;21159;-70
2021/12/16 06:55:12;;;;;;;43.75;24.45;;;;;;;6.56;92.03;101911.13;1697738;84;21062;-71
2021/12/16 07:00:14;;;;;;;72.12;37.00;;;;;;;6.57;92.05;101911.51;1726776;83;20927;-70
2021/12/16 07:02:46;;;;;;;74.27;38.75;;;;;;;6.58;92.06;101913.21;1698027;83;21035;-71
2021/12/16 07:05:05;;;;;;;95.15;50.23;;;;;;;6.58;92.07;101918.52;1696955;84;21031;-71
2021/12/16 07:07:31;;;;;;;71.85;40.98;;;;;;;6.58;92.08;101915.86;1701360;83;21024;-71
2021/12/16 07:09:57;;;;;;;59.30;31.07;;;;;;;6.60;92.11;101921.89;1700635;83;21018;-72
2021/12/16 07:12:34;;;;;;;42.48;22.93;;;;;;;6.59;92.10;101917.53;1718449;83;20943;-71
2021/12/16 07:14:51;;;;;;;41.98;21.40;;;;;;;6.59;92.09;101913.09;1720084;83;21050;-71
2021/12/16 07:17:17;;;;;;;37.70;23.00;;;;;;;6.60;92.14;101913.94;1717719;83;21800;-71
2021/12/16 07:19:44;;;;;;;39.92;27.25;;;;;;;6.60;92.14;101924.54;1727312;83;20892;-70
2021/12/16 07:22:13;;;;;;;42.33;25.70;;;;;;;6.60;92.15;101917.91;1727577;83;21610;-70
2021/12/16 07:24:39;;;;;;;34.50;20.95;;;;;;;6.61;92.15;101928.90;1714430;83;21011;-70
2021/12/16 07:27:06;;;;;;;28.40;18.70;;;;;;;6.61;92.16;101926.25;1701890;83;21741;-71
2021/12/16 07:29:32;;;;;;;28.77;16.65;;;;;;;6.61;92.16;101934.20;1683579;84;21013;-70
2021/12/16 07:31:59;;;;;;;39.30;21.73;;;;;;;6.61;92.17;101926.25;1685429;84;21763;-71
2021/12/16 07:34:25;;;;;;;30.80;18.77;;;;;;;6.62;92.16;101934.55;1701354;84;21069;-70
2021/12/16 07:36:51;;;;;;;26.17;17.10;;;;;;;6.63;92.17;101942.88;1701483;83;21074;-71
2021/12/16 07:39:18;;;;;;;29.95;18.73;;;;;;;6.64;92.18;101952.53;1701358;84;21003;-71
2021/12/16 07:41:47;;;;;;;31.25;19.60;;;;;;;6.65;92.19;101959.54;1701678;84;21163;-70
2021/12/16 07:44:14;;;;;;;26.70;16.70;;;;;;;6.65;92.18;101962.19;1701249;84;21475;-71
2021/12/16 07:46:46;;;;;;;23.18;15.40;;;;;;;6.64;92.19;101956.03;1679956;84;21538;-71
2021/12/16 07:49:15;;;;;;;25.35;16.55;;;;;;;6.64;92.20;101952.53;1673288;84;21058;-70
2021/12/16 07:51:41;;;;;;;32.30;17.62;;;;;;;6.66;92.21;101954.11;1673574;85;26536;-70
2021/12/16 07:54:08;;;;;;;25.27;16.40;;;;;;;6.64;92.21;101956.03;1675777;84;21228;-71
2021/12/16 07:56:34;;;;;;;25.97;16.42;;;;;;;6.66;92.22;101962.06;1678264;84;21485;-71
2021/12/16 07:59:00;;;;;;;24.02;16.48;;;;;;;6.67;92.22;101965.57;1673512;84;21002;-71
2021/12/16 08:01:27;;;;;;;25.55;16.02;;;;;;;6.65;92.21;101960.87;1673061;84;20911;-71
2021/12/16 08:03:53;;;;;;;24.87;16.07;;;;;;;6.66;92.25;101962.54;1679054;84;21148;-71
2021/12/16 08:06:23;;;;;;;24.67;15.95;;;;;;;6.66;92.24;101971.81;1681606;84;21131;-71
2021/12/16 08:08:55;;;;;;;24.15;15.75;;;;;;;6.65;92.26;101968.82;1673455;85;21554;-71
2021/12/16 08:11:21;;;;;;;28.35;17.20;;;;;;;6.66;92.25;101973.14;1681279;84;21082;-71
2021/12/16 08:13:47;;;;;;;26.42;17.77;;;;;;;6.68;92.25;101977.88;1676123;84;21045;-71
2021/12/16 08:16:13;;;;;;;30.60;18.25;;;;;;;6.68;92.25;101977.88;1673895;84;21017;-71
2021/12/16 08:18:39;;;;;;;27.85;17.65;;;;;;;6.69;92.25;101975.11;1684105;84;21482;-70
2021/12/16 08:21:05;;;;;;;28.40;19.57;;;;;;;6.71;92.27;101981.17;1676932;84;20990;-71
2021/12/16 08:23:32;;;;;;;30.90;18.90;;;;;;;6.74;92.28;101988.91;1676923;84;20997;-71
2021/12/16 08:25:58;;;;;;;26.05;16.48;;;;;;;6.74;92.27;101991.55;1699999;84;21034;-70
2021/12/16 08:28:25;;;;;;;28.05;17.62;;;;;;;6.76;92.28;101995.41;1700911;83;21543;-70
2021/12/16 08:30:52;;;;;;;27.52;18.55;;;;;;;6.76;92.31;101998.06;1694427;84;21503;-71
2021/12/16 08:33:18;;;;;;;26.12;17.48;;;;;;;6.77;92.32;101998.44;1672728;85;21534;-71
2021/12/16 08:35:48;;;;;;;23.30;16.75;;;;;;;6.77;92.30;101995.79;1678303;84;21065;-71
2021/12/16 08:38:17;;;;;;;23.90;14.68;;;;;;;6.77;92.33;101999.77;1672798;85;20998;-71
2021/12/16 08:40:43;;;;;;;32.35;16.73;;;;;;;6.76;92.33;102002.03;1672289;85;21113;-71
2021/12/16 08:43:10;;;;;;;23.35;15.58;;;;;;;6.76;92.33;102008.66;1702205;82;21124;-71
2021/12/16 08:45:36;;;;;;;27.25;17.57;;;;;;;6.75;92.33;102006.98;1706582;82;21070;-71
2021/12/16 08:48:03;;;;;;;26.17;17.42;;;;;;;6.76;92.36;102019.27;1688415;84;21066;-71
2021/12/16 08:50:33;;;;;;;20.12;15.15;;;;;;;6.76;92.36;102024.09;1672801;85;21019;-71
2021/12/16 08:53:00;;;;;;;25.85;17.07;;;;;;;6.76;92.37;102029.87;1673001;85;21724;-71
2021/12/16 08:55:28;;;;;;;23.25;15.43;;;;;;;6.77;92.37;102032.91;1672676;85;21776;-71
2021/12/16 08:57:56;;;;;;;21.80;15.50;;;;;;;6.78;92.39;102030.64;1646419;85;21082;-71
2021/12/16 09:00:29;;;;;;;21.23;14.95;;;;;;;6.78;92.39;102030.64;1673542;85;21074;-70
2021/12/16 09:02:55;;;;;;;26.45;15.40;;;;;;;6.79;92.38;102028.37;1673110;85;21096;-70
2021/12/16 09:05:21;;;;;;;23.83;15.05;;;;;;;6.81;92.40;102037.05;1678570;84;21375;-70
2021/12/16 09:07:48;;;;;;;22.40;15.60;;;;;;;6.81;92.39;102034.40;1687106;84;21133;-70
2021/12/16 09:10:22;;;;;;;23.15;16.10;;;;;;;6.82;92.40;102022.84;1700338;84;21011;-70
2021/12/16 09:12:54;;;;;;;25.08;15.43;;;;;;;6.82;92.42;102026.35;1693433;84;21540;-70
2021/12/16 09:15:18;;;;;;;24.35;15.48;;;;;;;6.84;92.42;102028.88;1685171;84;21530;-70
2021/12/16 09:17:44;;;;;;;22.75;16.57;;;;;;;6.85;92.41;102030.58;1673535;85;21042;-70
2021/12/16 09:20:10;;;;;;;27.37;17.52;;;;;;;6.86;92.44;102037.59;1675409;84;21172;-70
2021/12/16 09:22:36;;;;;;;21.30;14.75;;;;;;;6.87;92.44;102034.81;1672981;85;21050;-70
2021/12/16 09:25:03;;;;;;;25.57;15.70;;;;;;;6.87;92.44;102039.27;1681979;84;20982;-70
2021/12/16 09:27:29;;;;;;;25.35;17.25;;;;;;;6.86;92.46;102035.77;1680236;84;21495;-70
2021/12/16 09:29:55;;;;;;;22.62;14.10;;;;;;;6.88;92.45;102037.00;1698692;83;21003;-70
2021/12/16 09:32:23;;;;;;;23.27;15.85;;;;;;;6.91;92.47;102036.31;1696365;84;21340;-70
2021/12/16 09:34:49;;;;;;;22.50;16.73;;;;;;;6.93;92.48;102038.87;1689478;84;21077;-70
2021/12/16 09:37:15;;;;;;;26.65;17.12;;;;;;;6.95;92.48;102032.50;1668078;86;21609;-70
2021/12/16 09:39:41;;;;;;;28.30;17.90;;;;;;;6.96;92.47;102028.89;1668669;84;20985;-70
2021/12/16 09:42:09;;;;;;;24.30;17.20;;;;;;;6.96;92.49;102028.89;1683066;84;20875;-70
2021/12/16 09:44:36;;;;;;;41.18;25.97;;;;;;;6.99;92.49;102038.44;1692880;84;21964;-70
2021/12/16 09:47:05;;;;;;;79.07;41.13;;;;;;;6.97;92.48;102030.56;1676576;84;21102;-70
2021/12/16 09:49:31;;;;;;;56.23;27.35;;;;;;;6.99;92.48;102027.83;1689636;84;21058;-70
2021/12/16 09:51:59;;;;;;;55.50;26.77;;;;;;;6.99;92.51;102030.47;1689333;84;21070;-70
2021/12/16 09:54:29;;;;;;;48.65;27.40;;;;;;;7.01;92.51;102041.81;1685136;84;21018;-70
2021/12/16 09:56:55;;;;;;;36.83;20.75;;;;;;;7.01;92.51;102043.14;1694240;84;22483;-70
2021/12/16 09:59:23;;;;;;;47.80;25.62;;;;;;;7.03;92.52;102045.23;1683807;84;21016;-70
2021/12/16 10:01:51;;;;;;;75.75;36.63;;;;;;;7.04;92.52;102038.94;1668876;84;21092;-70
2021/12/16 10:04:20;;;;;;;56.05;37.48;;;;;;;7.07;92.52;102042.73;1672051;83;21493;-70
2021/12/16 10:06:48;;;;;;;48.38;30.92;;;;;;;7.11;92.52;102049.50;1683042;84;21046;-71
2021/12/16 10:09:14;;;;;;;36.70;21.48;;;;;;;7.15;92.52;102048.33;1679690;84;21163;-71
2021/12/16 10:11:43;;;;;;;42.95;24.67;;;;;;;7.18;92.53;102045.97;1674112;84;20914;-70
2021/12/16 10:19:40;;;;;;;38.05;24.75;;;;;;;7.25;92.55;102045.40;1818196;77;21034;-71
2021/12/16 10:22:22;;;;;;;36.15;18.85;;;;;;;7.27;92.53;102039.52;1823937;77;21611;-72
2021/12/16 10:24:49;;;;;;;25.20;14.98;;;;;;;7.25;92.53;102045.88;1850888;77;21011;-71
2021/12/16 10:27:23;;;;;;;26.60;17.50;;;;;;;7.24;92.53;102038.42;1785241;78;20995;-71
2021/12/16 10:30:02;;;;;;;33.28;18.80;;;;;;;7.25;92.52;102037.91;1787209;78;20915;-71
2021/12/16 10:32:41;;;;;;;26.17;15.45;;;;;;;7.25;92.51;102044.55;1777657;79;21042;-73
2021/12/16 10:35:30;;;;;;;27.93;16.70;;;;;;;7.26;92.51;102041.80;1777624;79;26708;-72
2021/12/16 10:38:01;;;;;;;24.23;14.23;;;;;;;7.26;92.49;102039.14;1776959;79;21547;-72
2021/12/16 10:40:40;;;;;;;84.35;38.80;;;;;;;7.26;92.49;102048.91;1780459;79;21516;-72
2021/12/16 10:43:13;;;;;;;30.62;18.17;;;;;;;7.25;92.47;102046.73;1786929;79;21066;-72
2021/12/16 10:45:48;;;;;;;21.00;13.48;;;;;;;7.27;92.50;102032.89;1783471;79;21544;-72
2021/12/16 10:48:31;;;;;;;23.15;15.48;;;;;;;7.24;92.45;102033.11;1804494;78;21113;-72
2021/12/16 10:51:36;;;;;;;23.55;13.62;;;;;;;7.26;92.46;102043.59;1808265;78;21046;-72
2021/12/16 10:54:22;;;;;;;23.18;13.40;;;;;;;7.26;92.45;102041.80;1801371;78;21055;-72
2021/12/16 10:57:03;;;;;;;24.27;15.63;;;;;;;7.25;92.45;102034.78;1778906;80;21480;-72
2021/12/16 10:59:39;;;;;;;29.00;19.23;;;;;;;7.24;92.42;102037.56;1780647;80;21125;-72
2021/12/16 11:02:16;;;;;;;61.55;32.50;;;;;;;7.22;92.42;102040.31;1778828;79;21141;-72
2021/12/16 11:05:02;;;;;;;33.25;19.62;;;;;;;7.22;92.40;102047.42;1786936;79;20998;-72
2021/12/16 11:07:45;;;;;;;21.40;15.13;;;;;;;7.21;92.39;102021.39;1767401;79;21139;-72
2021/12/16 11:10:25;;;;;;;18.45;12.35;;;;;;;7.22;92.39;102037.66;1777402;79;21085;-72
2021/12/16 11:13:03;;;;;;;34.92;20.23;;;;;;;7.22;92.37;102031.03;1779762;79;21011;-72
2021/12/16 11:15:47;;;;;;;40.53;23.50;;;;;;;7.21;92.35;102024.52;1788733;78;21101;-72
2021/12/16 11:18:20;;;;;;;19.60;13.53;;;;;;;7.22;92.36;102028.38;1787270;79;21019;-72
2021/12/16 11:21:06;;;;;;;27.13;15.15;;;;;;;7.23;92.35;102035.86;1752726;79;21042;-72
2021/12/16 11:23:41;;;;;;;19.35;13.13;;;;;;;7.26;92.35;102036.97;1820841;78;21050;-72
2021/12/16 11:26:13;;;;;;;19.30;15.25;;;;;;;7.29;92.35;102030.11;1785662;80;20988;-72
2021/12/16 11:28:51;;;;;;;20.27;13.18;;;;;;;7.28;92.34;102029.26;1795046;79;21587;-72
2021/12/16 11:31:22;;;;;;;17.60;13.28;;;;;;;7.30;92.33;102035.32;1752529;79;21475;-72
2021/12/16 11:33:54;;;;;;;15.10;10.25;;;;;;;7.34;92.31;102036.80;1773772;79;21046;-72
2021/12/16 11:36:25;;;;;;;44.00;22.85;;;;;;;7.39;92.32;102038.63;1808157;78;21033;-72
2021/12/16 11:39:18;;;;;;;26.37;16.02;;;;;;;7.42;92.32;102033.61;1777943;80;21002;-72
2021/12/16 11:42:00;;;;;;;26.30;15.28;;;;;;;7.45;92.31;102038.70;1777025;79;21827;-71
2021/12/16 11:44:33;;;;;;;29.63;17.87;;;;;;;7.47;92.29;102036.77;1820175;78;20979;-71
2021/12/16 11:47:19;;;;;;;24.27;15.75;;;;;;;7.47;92.30;102047.38;1819831;78;21049;-71
2021/12/16 11:50:01;;;;;;;29.00;16.42;;;;;;;7.43;92.27;102049.41;1779289;80;21381;-71
2021/12/16 11:52:30;;;;;;;17.92;10.88;;;;;;;7.42;92.28;102038.92;1808995;78;21083;-71
2021/12/16 11:55:12;;;;;;;18.23;12.45;;;;;;;7.38;92.27;102030.33;1805477;78;21143;-71
2021/12/16 11:57:51;;;;;;;19.52;12.30;;;;;;;7.35;92.24;102030.52;1801126;77;21058;-71
2021/12/16 12:00:24;;;;;;;29.03;16.77;;;;;;;7.35;92.24;102025.21;1801286;78;21472;-70
2021/12/16 12:02:55;;;;;;;26.55;14.68;;;;;;;7.32;92.21;102029.41;1777073;80;21034;-71
2021/12/16 12:05:47;;;;;;;38.85;18.40;;;;;;;7.33;92.22;102028.94;1778601;79;21050;-71
2021/12/16 12:08:20;;;;;;;22.25;14.43;;;;;;;7.32;92.21;102024.11;1813596;78;21115;-71
2021/12/16 12:10:53;;;;;;;34.98;21.25;;;;;;;7.35;92.20;102025.72;1760812;81;20990;-71
2021/12/16 12:13:25;;;;;;;24.60;13.20;;;;;;;7.37;92.18;102033.93;1791689;80;21042;-70
2021/12/16 12:16:03;;;;;;;27.00;15.23;;;;;;;7.40;92.17;102033.70;1793749;78;21078;-71
2021/12/16 12:18:48;;;;;;;31.48;16.93;;;;;;;7.42;92.15;102034.94;1793669;78;21487;-71
2021/12/16 12:21:31;;;;;;;15.03;10.32;;;;;;;7.41;92.15;102044.70;1812355;78;21170;-71
2021/12/16 12:24:07;;;;;;;19.55;11.10;;;;;;;7.43;92.14;102036.13;1791500;78;21097;-71
2021/12/16 12:26:38;;;;;;;23.07;12.95;;;;;;;7.41;92.12;102043.37;1791783;80;21052;-71
2021/12/16 12:29:12;;;;;;;22.65;11.10;;;;;;;7.40;92.10;102056.27;1773441;78;21036;-71
2021/12/16 12:31:43;;;;;;;19.48;11.97;;;;;;;7.39;92.12;102051.05;1779315;78;21431;-71
2021/12/16 12:34:09;;;;;;;17.25;9.28;;;;;;;7.39;92.06;102049.25;1823761;78;21711;-71
2021/12/16 12:36:35;;;;;;;14.40;8.28;;;;;;;7.39;92.05;102050.58;1792001;80;20922;-71
2021/12/16 12:39:05;;;;;;;17.57;10.70;;;;;;;7.40;92.04;102053.61;1801675;78;20886;-71
2021/12/16 12:41:31;;;;;;;19.67;11.73;;;;;;;7.43;92.03;102054.72;1795909;79;21042;-71
2021/12/16 12:43:57;;;;;;;36.70;19.85;;;;;;;7.44;92.02;102051.11;1804312;78;20949;-71
2021/12/16 12:46:23;;;;;;;79.90;37.78;;;;;;;7.45;92.00;102048.84;1800339;78;21002;-71
2021/12/16 12:48:50;;;;;;;48.15;24.95;;;;;;;7.47;91.97;102053.55;1793063;78;21462;-71
2021/12/16 12:51:16;;;;;;;43.63;24.35;;;;;;;7.49;91.97;102058.76;1791663;80;20957;-71
2021/12/16 12:53:49;;;;;;;20.37;13.13;;;;;;;7.50;91.96;102061.28;1792003;80;21049;-71
2021/12/16 12:56:22;;;;;;;12.10;8.58;;;;;;;7.50;91.94;102060.44;1814619;78;20982;-71
2021/12/16 12:59:11;;;;;;;13.48;9.68;;;;;;;7.49;91.94;102054.27;1807860;78;21099;-71
2021/12/16 13:01:52;;;;;;;16.10;9.50;;;;;;;7.47;91.90;102059.33;1805323;78;20990;-71
2021/12/16 13:04:25;;;;;;;13.15;9.10;;;;;;;7.45;91.90;102050.16;1764630;78;21006;-71
2021/12/16 13:07:07;;;;;;;19.25;11.35;;;;;;;7.43;91.86;102050.73;1799460;78;21026;-71
2021/12/16 13:09:43;;;;;;;25.57;17.07;;;;;;;7.45;91.85;102052.82;1823342;78;21080;-70
2021/12/16 13:12:42;;;;;;;22.48;14.33;;;;;;;7.47;91.85;102062.84;1814482;78;21118;-71
2021/12/16 13:15:38;;;;;;;18.35;12.30;;;;;;;7.48;91.81;102060.56;1790612;80;20993;-71
2021/12/16 13:24:10;;;;;;;15.03;10.63;;;;;;;7.37;91.74;102061.80;1787133;79;20997;-71
2021/12/16 13:26:33;;;;;;;13.83;8.75;;;;;;;7.39;91.74;102053.23;1804476;78;21132;-72
2021/12/16 13:29:13;;;;;;;16.70;8.98;;;;;;;7.43;91.74;102048.55;1778050;78;20995;-73
2021/12/16 13:31:50;;;;;;;19.27;11.88;;;;;;;7.41;91.70;102039.87;1780207;78;20994;-72
2021/12/16 13:34:38;;;;;;;13.62;9.05;;;;;;;7.42;91.67;102047.70;1786413;80;21041;-72
2021/12/16 13:37:08;;;;;;;14.87;8.00;;;;;;;7.41;91.62;102044.70;1824196;78;21013;-72
2021/12/16 13:39:39;;;;;;;9.30;7.00;;;;;;;7.35;91.58;102037.16;1770955;80;21850;-72
2021/12/16 13:42:12;;;;;;;16.87;10.85;;;;;;;7.31;91.55;102041.01;1794000;78;21002;-72